Bookmark and Share
Track history (hours):
 

Bluefin

More information available from US FCC via Universal Licensing System and Coast Guard Vessel Documentation Center.

Last reported at 2014-Apr-20 23:25 UTC. Time now 2014-Apr-20 23:43 UTC.
Position N 39°15' W 073°49'.

Length 166 m; draft 7.3 m.

MMSI: 367416750.

NotesDate/timePositionNaut miles runAvg speedWind from/ knotsBaromVisibWave heightAir tempDewpointWater temp
2014-Apr-20 23:25N 39°15' W 073°49'75 2.1
2014-Apr-19 11:21N 39°51' W 075°14'0 0.0
2014-Apr-19 10:33N 39°51' W 075°14'0 0.0
2014-Apr-19 09:33N 39°51' W 075°14'0 0.0
2014-Apr-19 08:30N 39°51' W 075°14'0 0.0
2014-Apr-19 07:18N 39°51' W 075°14'0 0.0
2014-Apr-19 06:31N 39°51' W 075°14'1 0.0
2014-Apr-18 07:27N 39°52' W 075°13'0 0.0
2014-Apr-18 06:29N 39°52' W 075°13'0 0.0
2014-Apr-18 05:33N 39°52' W 075°13'55 1.6
2014-Apr-16 18:33N 39°26' W 074°11'1111.1
2014-Apr-16 17:33N 39°36' W 074°04'1110.9
2014-Apr-16 16:33N 39°46' W 073°58'3411.0
2014-Apr-16 13:27N 40°20' W 073°54'910.3
2014-Apr-16 12:33N 40°29' W 073°58'6 0.4
2014-Apr-15 20:17N 40°29' W 074°06'0 0.0
2014-Apr-15 19:23N 40°29' W 074°06'0 0.1
2014-Apr-15 18:26N 40°29' W 074°06'3 2.8
2014-Apr-15 17:28N 40°30' W 074°10'4 0.1
2014-Apr-14 10:33N 40°30' W 074°15'7 6.9
2014-Apr-14 09:33N 40°29' W 074°06'9 9.1
2014-Apr-14 08:33N 40°26' W 073°55'20 9.9
2014-Apr-14 06:30N 40°06' W 073°55'10 9.9
2014-Apr-14 05:29N 39°56' W 073°57'59 2.9
2014-Apr-13 09:09N 39°51' W 075°14'0 0.0
2014-Apr-13 08:33N 39°51' W 075°14'0 0.0
2014-Apr-13 07:33N 39°51' W 075°14'0 0.0
2014-Apr-13 06:13N 39°51' W 075°14'0 0.0
2014-Apr-13 05:33N 39°51' W 075°14'0 0.0
2014-Apr-13 04:33N 39°51' W 075°14'0 0.0
2014-Apr-13 03:32N 39°51' W 075°14'158 5.6
2014-Apr-11 23:26N 37°14' W 075°18'1111.8
2014-Apr-11 22:31N 37°03' W 075°17'14310.9
2014-Apr-11 09:20N 34°42' W 075°49'912.0
2014-Apr-11 08:34N 34°35' W 075°57'1111.3
2014-Apr-11 07:33N 34°28' W 076°07'1211.3
2014-Apr-11 06:30N 34°19' W 076°17'  

Dump ship's entire track history

sailing weather and tide predictions

Bluefin — WDE9397 — position and weather